createdAt,value
2022-10-04T00:01:33.289Z,8.50
2022-10-04T00:04:10.358Z,9.00
2022-10-04T00:06:38.638Z,8.70
2022-10-04T00:09:19.488Z,8.40
2022-10-04T00:11:48.384Z,10.70
2022-10-04T00:14:38.886Z,11.90
2022-10-04T00:17:11.741Z,10.20
2022-10-04T00:19:44.068Z,10.60
2022-10-04T00:22:17.778Z,9.40
2022-10-04T00:25:14.165Z,12.30
2022-10-04T00:28:24.909Z,10.60
2022-10-04T00:31:22.892Z,10.50
2022-10-04T00:34:13.097Z,8.70
2022-10-04T00:36:47.438Z,8.30
2022-10-04T00:39:16.930Z,7.50
2022-10-04T00:41:50.159Z,12.00
2022-10-04T00:44:38.352Z,12.90
2022-10-04T00:47:20.244Z,9.70
2022-10-04T00:49:50.996Z,9.90
2022-10-04T00:52:25.739Z,11.20
2022-10-04T00:55:00.744Z,9.60
2022-10-04T00:57:31.958Z,9.40
2022-10-04T01:00:19.654Z,8.50
2022-10-04T01:03:11.760Z,11.10
2022-10-04T01:05:42.887Z,11.50
2022-10-04T01:08:46.498Z,8.20
2022-10-04T01:11:29.729Z,9.40
2022-10-04T01:14:15.437Z,8.30
2022-10-04T01:16:42.778Z,9.20
2022-10-04T01:19:33.379Z,9.90
2022-10-04T01:22:12.676Z,9.10
2022-10-04T01:24:45.211Z,6.30
2022-10-04T01:27:36.815Z,10.80
2022-10-04T01:30:10.973Z,8.80
2022-10-04T01:32:39.138Z,9.60
2022-10-04T01:35:10.745Z,6.80
2022-10-04T01:37:39.775Z,6.80
2022-10-04T01:40:11.096Z,8.70
2022-10-04T01:42:51.767Z,10.40
2022-10-04T01:45:28.703Z,10.50
2022-10-04T01:47:59.591Z,12.10
2022-10-04T01:50:38.383Z,9.30
2022-10-04T01:53:21.627Z,11.10
2022-10-04T01:55:52.514Z,10.20
2022-10-04T01:58:29.243Z,10.70
2022-10-04T02:01:07.979Z,11.20
2022-10-04T02:03:38.673Z,10.70
2022-10-04T02:06:09.025Z,9.00
2022-10-04T02:08:39.963Z,14.90
2022-10-04T02:11:08.129Z,7.80
2022-10-04T02:13:38.058Z,8.90
2022-10-04T02:16:09.422Z,9.10
2022-10-04T02:18:38.672Z,9.30
2022-10-04T02:21:07.261Z,7.30
2022-10-04T02:23:36.046Z,11.60
2022-10-04T02:26:07.940Z,10.10
2022-10-04T02:28:36.138Z,9.30
2022-10-04T02:31:23.041Z,11.60
2022-10-04T02:33:52.507Z,10.80
2022-10-04T02:36:23.860Z,9.60
2022-10-04T02:39:16.043Z,9.60
2022-10-04T02:41:57.022Z,8.90
2022-10-04T02:44:31.552Z,9.40
2022-10-04T02:47:17.771Z,11.80
2022-10-04T02:49:59.314Z,12.50
2022-10-04T02:52:43.015Z,10.00
2022-10-04T02:55:18.951Z,11.70
2022-10-04T02:57:46.512Z,10.40
2022-10-04T03:00:16.398Z,12.00
2022-10-04T03:03:21.564Z,8.60
2022-10-04T03:06:09.227Z,9.90
2022-10-04T03:08:48.484Z,9.80
2022-10-04T03:11:16.524Z,12.10
2022-10-04T03:13:47.496Z,8.90
2022-10-04T03:16:15.133Z,9.40
2022-10-04T03:18:43.478Z,9.30
2022-10-04T03:21:15.135Z,14.70
2022-10-04T03:23:42.792Z,9.50
2022-10-04T03:26:33.769Z,14.60
2022-10-04T03:29:01.379Z,13.70
2022-10-04T03:31:29.185Z,9.40
2022-10-04T03:33:57.917Z,8.90
2022-10-04T03:36:27.039Z,10.10
2022-10-04T03:38:55.783Z,12.20
2022-10-04T03:41:26.195Z,10.80
2022-10-04T03:44:01.467Z,9.20
2022-10-04T03:46:33.040Z,9.30
2022-10-04T03:49:00.498Z,8.40
2022-10-04T03:51:27.947Z,14.40
2022-10-04T03:53:57.558Z,9.60
2022-10-04T03:56:31.262Z,11.50
2022-10-04T03:58:58.913Z,12.10
2022-10-04T04:01:46.997Z,11.30
2022-10-04T04:04:32.015Z,11.80
2022-10-04T04:07:06.172Z,7.90
2022-10-04T04:09:52.449Z,8.90
2022-10-04T04:12:25.713Z,15.90
2022-10-04T04:14:54.091Z,12.50
2022-10-04T04:17:30.169Z,11.20
2022-10-04T04:20:07.171Z,9.50
2022-10-04T04:22:37.067Z,8.30
2022-10-04T04:25:08.637Z,11.00
2022-10-04T04:27:38.512Z,13.10
2022-10-04T04:30:07.068Z,11.70
2022-10-04T04:32:48.490Z,12.10
2022-10-04T04:35:24.553Z,9.70
2022-10-04T04:38:23.458Z,7.80
2022-10-04T04:40:56.005Z,10.30
2022-10-04T04:43:26.658Z,9.20
2022-10-04T04:46:14.964Z,9.20
2022-10-04T04:48:48.024Z,11.90
2022-10-04T04:51:21.109Z,9.60
2022-10-04T04:53:49.237Z,10.20
2022-10-04T04:56:21.946Z,9.90
2022-10-04T04:58:50.097Z,13.40
2022-10-04T05:01:35.866Z,10.10
2022-10-04T05:04:12.977Z,8.30
2022-10-04T05:06:45.076Z,10.60
2022-10-04T05:09:41.765Z,12.10
2022-10-04T05:12:22.024Z,12.20
2022-10-04T05:14:52.598Z,9.40
2022-10-04T05:17:23.513Z,8.80
2022-10-04T05:19:51.881Z,12.30
2022-10-04T05:22:22.198Z,14.60
2022-10-04T05:24:52.805Z,12.20
2022-10-04T05:27:43.108Z,9.70
2022-10-04T05:30:35.972Z,10.70
2022-10-04T05:33:14.924Z,12.80
2022-10-04T05:35:54.984Z,12.60
2022-10-04T05:38:32.533Z,9.00
2022-10-04T05:41:37.380Z,12.40
2022-10-04T05:44:28.271Z,10.50
2022-10-04T05:47:03.660Z,11.20
2022-10-04T05:49:39.365Z,10.50
2022-10-04T05:52:18.572Z,11.30
2022-10-04T05:54:46.037Z,11.10
2022-10-04T05:57:57.766Z,9.90
2022-10-04T06:00:39.158Z,8.20
2022-10-04T06:03:27.698Z,10.80
2022-10-04T06:06:02.538Z,12.00
2022-10-04T06:08:44.713Z,9.90
2022-10-04T06:11:38.719Z,8.50
2022-10-04T06:14:43.132Z,14.20
2022-10-04T06:17:28.606Z,8.40
2022-10-04T06:20:33.135Z,8.80
2022-10-04T06:23:03.315Z,14.10
2022-10-04T06:25:45.748Z,11.80
2022-10-04T06:28:19.042Z,9.60
2022-10-04T06:31:11.538Z,8.90
2022-10-04T06:33:44.600Z,12.20
2022-10-04T06:36:29.878Z,13.40
2022-10-04T06:39:18.298Z,10.10
2022-10-04T06:41:51.907Z,8.50
2022-10-04T06:44:23.344Z,12.80
2022-10-04T06:46:59.300Z,11.40
2022-10-04T06:49:34.458Z,11.90
2022-10-04T06:52:20.743Z,11.60
2022-10-04T06:55:09.938Z,7.90
2022-10-04T06:58:09.122Z,6.40
2022-10-04T07:00:46.389Z,9.70
2022-10-04T07:03:40.884Z,12.20
2022-10-04T07:06:11.841Z,9.90
2022-10-04T07:08:51.685Z,10.90
2022-10-04T07:11:35.625Z,12.10
2022-10-04T07:14:06.687Z,8.80
2022-10-04T07:16:49.889Z,11.50
2022-10-04T07:19:20.107Z,8.10
2022-10-04T07:22:08.854Z,10.90
2022-10-04T07:24:54.241Z,9.00
2022-10-04T07:27:24.045Z,7.30
2022-10-04T07:29:59.808Z,8.60
2022-10-04T07:32:33.612Z,8.10
2022-10-04T07:35:33.142Z,11.00
2022-10-04T07:38:30.495Z,10.90
2022-10-04T07:41:13.527Z,10.70
2022-10-04T07:44:00.874Z,10.80
2022-10-04T07:46:43.228Z,10.60
2022-10-04T07:49:19.148Z,8.30
2022-10-04T07:52:08.358Z,11.30
2022-10-04T07:54:51.955Z,6.70
2022-10-04T07:57:33.200Z,9.40
2022-10-04T08:00:11.567Z,9.30
2022-10-04T08:03:15.731Z,8.80
2022-10-04T08:05:50.030Z,9.30
2022-10-04T08:08:38.159Z,7.40
2022-10-04T08:11:11.158Z,12.80
2022-10-04T08:14:03.263Z,9.60
2022-10-04T08:16:36.722Z,7.40
2022-10-04T08:19:25.338Z,8.20
2022-10-04T08:22:06.388Z,8.80
2022-10-04T08:24:53.396Z,8.00
2022-10-04T08:28:03.797Z,6.70
2022-10-04T08:30:51.633Z,8.70
2022-10-04T08:33:24.994Z,10.70
2022-10-04T08:36:08.853Z,9.40
2022-10-04T08:38:52.064Z,9.00
2022-10-04T08:41:34.948Z,9.60
2022-10-04T08:44:33.274Z,6.20
2022-10-04T08:47:26.624Z,6.70
2022-10-04T08:50:31.519Z,7.20
2022-10-04T08:53:17.147Z,12.00
2022-10-04T08:56:02.839Z,7.00
2022-10-04T08:59:07.251Z,7.10
2022-10-04T09:02:07.375Z,6.10
2022-10-04T09:05:03.913Z,6.90
2022-10-04T09:07:53.607Z,7.00
2022-10-04T09:10:45.526Z,9.80
2022-10-04T09:13:13.610Z,10.80
2022-10-04T09:15:40.681Z,7.90
2022-10-04T09:18:29.817Z,8.70
2022-10-04T09:21:01.559Z,8.10
2022-10-04T09:23:31.695Z,8.00
2022-10-04T09:26:17.264Z,8.30
2022-10-04T09:29:05.132Z,9.60
2022-10-04T09:31:45.197Z,11.80
2022-10-04T09:34:37.318Z,10.60
2022-10-04T09:37:33.207Z,9.70
2022-10-04T09:40:18.614Z,9.30
2022-10-04T09:43:19.437Z,7.20
2022-10-04T09:46:08.542Z,10.70
2022-10-04T09:48:37.473Z,9.20
2022-10-04T09:51:56.853Z,8.00
2022-10-04T09:54:55.558Z,6.20
2022-10-04T09:57:41.227Z,9.90
2022-10-04T10:00:22.608Z,9.20
2022-10-04T10:03:15.893Z,7.20
2022-10-04T10:05:58.584Z,6.70
2022-10-04T10:09:00.667Z,5.90
2022-10-04T10:12:05.484Z,11.40
2022-10-04T10:15:12.258Z,7.90
2022-10-04T10:17:50.576Z,7.20
2022-10-04T10:20:41.197Z,7.90
2022-10-04T10:23:49.056Z,6.40
2022-10-04T10:26:43.455Z,7.80
2022-10-04T10:29:29.378Z,8.70
2022-10-04T10:32:18.274Z,8.80
2022-10-04T10:34:49.468Z,6.40
2022-10-04T10:37:32.021Z,9.60
2022-10-04T10:40:37.627Z,10.10
2022-10-04T10:43:27.515Z,7.70
2022-10-04T10:46:00.435Z,8.70
2022-10-04T10:48:55.388Z,7.30
2022-10-04T10:51:49.547Z,6.70
2022-10-04T10:54:38.427Z,10.00
2022-10-04T10:57:27.493Z,7.40
2022-10-04T11:00:12.162Z,8.20
2022-10-04T11:03:12.581Z,9.60
2022-10-04T11:05:58.398Z,7.70
2022-10-04T11:08:46.074Z,6.70
2022-10-04T11:11:20.336Z,5.60
2022-10-04T11:14:02.833Z,6.50
2022-10-04T11:16:36.240Z,5.40
2022-10-04T11:19:16.517Z,8.20
2022-10-04T11:22:07.921Z,4.50
2022-10-04T11:25:12.900Z,6.90
2022-10-04T11:28:09.308Z,7.50
2022-10-04T11:31:02.044Z,4.80
2022-10-04T11:33:29.199Z,6.30
2022-10-04T11:36:34.403Z,7.40
2022-10-04T11:39:17.737Z,5.90
2022-10-04T11:41:57.164Z,8.50
2022-10-04T11:45:05.828Z,8.90
2022-10-04T11:47:43.397Z,6.60
2022-10-04T11:51:03.503Z,6.30
2022-10-04T11:53:58.609Z,7.80
2022-10-04T11:56:29.934Z,6.70
2022-10-04T11:59:06.004Z,6.60
2022-10-04T12:02:18.207Z,5.00
2022-10-04T12:05:20.505Z,6.10
2022-10-04T12:08:02.571Z,6.80
2022-10-04T12:10:41.245Z,6.90
2022-10-04T12:13:28.837Z,8.80
2022-10-04T12:16:05.516Z,7.60
2022-10-04T12:18:50.974Z,8.50
2022-10-04T12:21:41.181Z,7.00
2022-10-04T12:24:20.632Z,8.00
2022-10-04T12:27:12.737Z,7.10
2022-10-04T12:30:05.178Z,8.40
2022-10-04T12:32:59.061Z,9.00
2022-10-04T12:35:51.464Z,6.60
2022-10-04T12:38:25.361Z,6.60
2022-10-04T12:41:20.516Z,5.60
2022-10-04T12:44:22.378Z,5.30
2022-10-04T12:47:20.764Z,7.10
2022-10-04T12:50:18.220Z,6.60
2022-10-04T12:53:14.842Z,4.40
2022-10-04T12:55:53.373Z,4.60
2022-10-04T12:58:43.778Z,5.20
2022-10-04T13:01:23.057Z,4.90
2022-10-04T13:04:15.569Z,7.60
2022-10-04T13:07:07.482Z,4.80
2022-10-04T13:10:27.041Z,6.30
2022-10-04T13:13:17.097Z,4.40
2022-10-04T13:19:09.277Z,6.90
2022-10-04T13:21:36.966Z,7.80
2022-10-04T13:24:31.161Z,7.00
2022-10-04T13:27:15.801Z,7.00
2022-10-04T13:29:53.811Z,6.00
2022-10-04T13:32:28.332Z,4.60
2022-10-04T13:35:12.985Z,6.80
2022-10-04T13:38:10.241Z,6.20
2022-10-04T13:40:47.945Z,6.30
2022-10-04T13:43:47.262Z,5.00
2022-10-04T13:46:42.287Z,5.00
2022-10-04T13:49:28.431Z,5.00
2022-10-04T13:53:09.318Z,8.90
2022-10-04T13:56:08.926Z,6.30
2022-10-04T13:58:51.854Z,6.10
2022-10-04T14:01:27.050Z,7.00
2022-10-04T14:04:19.058Z,6.30
2022-10-04T14:07:23.045Z,5.60
2022-10-04T14:10:29.809Z,8.20
2022-10-04T14:13:40.999Z,5.30
2022-10-04T14:16:20.904Z,6.70
2022-10-04T14:18:48.403Z,6.70
2022-10-04T14:21:43.912Z,8.80
2022-10-04T14:24:36.771Z,7.20
2022-10-04T14:27:22.749Z,5.40
2022-10-04T14:30:12.951Z,6.90
2022-10-04T14:32:55.143Z,9.00
2022-10-04T14:35:30.718Z,6.30
2022-10-04T14:38:16.168Z,6.10
2022-10-04T14:41:08.764Z,7.30
2022-10-04T14:44:06.924Z,7.60
2022-10-04T14:47:01.911Z,6.20
2022-10-04T14:50:06.339Z,4.80
2022-10-04T14:52:38.719Z,6.20
2022-10-04T14:55:27.438Z,5.70
2022-10-04T14:58:06.951Z,5.50
2022-10-04T15:00:57.611Z,4.40
2022-10-04T15:03:30.371Z,5.60
2022-10-04T15:06:11.373Z,6.90
2022-10-04T15:09:30.203Z,6.60
2022-10-04T15:12:27.295Z,6.50
2022-10-04T15:14:58.144Z,6.20
2022-10-04T15:17:35.059Z,8.90
2022-10-04T15:20:11.180Z,7.10
2022-10-04T15:22:58.945Z,5.60
2022-10-04T15:25:45.937Z,5.60
2022-10-04T15:28:42.641Z,7.40
2022-10-04T15:31:16.602Z,6.70
2022-10-04T15:33:58.917Z,8.20
2022-10-04T15:37:03.459Z,6.90
2022-10-04T15:39:59.897Z,7.40
2022-10-04T15:42:31.334Z,8.40
2022-10-04T15:45:19.685Z,5.20
2022-10-04T15:48:08.683Z,7.20
2022-10-04T15:50:49.210Z,8.20
2022-10-04T15:53:35.306Z,6.20
2022-10-04T15:56:13.247Z,6.10
2022-10-04T15:58:56.638Z,6.00
2022-10-04T16:01:27.845Z,6.60
2022-10-04T16:04:16.866Z,6.60
2022-10-04T16:07:42.674Z,10.10
2022-10-04T16:10:20.425Z,8.10
2022-10-04T16:12:48.956Z,7.50
2022-10-04T16:15:33.515Z,7.50
2022-10-04T16:18:13.803Z,7.20
2022-10-04T16:21:02.537Z,7.70
2022-10-04T16:23:35.367Z,8.00
2022-10-04T16:26:34.494Z,9.90
2022-10-04T16:29:22.114Z,9.10
2022-10-04T16:31:53.914Z,9.00
2022-10-04T16:34:48.578Z,8.60
2022-10-04T16:37:19.039Z,8.00
2022-10-04T16:40:02.869Z,8.90
2022-10-04T16:42:49.818Z,10.30
2022-10-04T16:45:48.649Z,11.20
2022-10-04T16:48:42.840Z,14.50
2022-10-04T16:51:19.208Z,13.20
2022-10-04T16:54:31.969Z,12.60
2022-10-04T16:57:00.965Z,11.00
2022-10-04T16:59:37.260Z,9.30
2022-10-04T17:02:22.049Z,10.20
2022-10-04T17:05:25.987Z,10.80
2022-10-04T17:08:17.550Z,13.40
2022-10-04T17:10:50.571Z,10.70
2022-10-04T17:13:32.681Z,10.60
2022-10-04T17:16:14.018Z,10.20
2022-10-04T17:19:16.323Z,10.30
2022-10-04T17:22:04.594Z,11.80
2022-10-04T17:24:51.797Z,10.20
2022-10-04T17:27:48.927Z,12.20
2022-10-04T17:30:27.978Z,9.80
2022-10-04T17:33:06.892Z,10.70
2022-10-04T17:36:11.959Z,8.30
2022-10-04T17:38:48.339Z,9.30
2022-10-04T17:41:18.839Z,12.80
2022-10-04T17:43:56.472Z,9.90
2022-10-04T17:46:24.560Z,10.50
2022-10-04T17:49:21.744Z,10.10
2022-10-04T17:52:14.666Z,10.20
2022-10-04T17:55:12.465Z,10.90
2022-10-04T17:57:43.590Z,8.30
2022-10-04T18:00:11.657Z,11.70
2022-10-04T18:03:00.559Z,11.10
2022-10-04T18:05:42.443Z,11.00
2022-10-04T18:08:22.543Z,10.50
2022-10-04T18:10:52.720Z,9.60
2022-10-04T18:13:40.304Z,10.50
2022-10-04T18:16:23.506Z,10.40
2022-10-04T18:18:52.865Z,11.50
2022-10-04T18:21:27.797Z,15.70
2022-10-04T18:24:02.373Z,14.20
2022-10-04T18:26:32.974Z,15.80
2022-10-04T18:29:02.606Z,14.70
2022-10-04T18:31:41.331Z,14.70
2022-10-04T18:34:13.001Z,19.40
2022-10-04T18:36:58.008Z,20.50
2022-10-04T18:39:26.151Z,18.50
2022-10-04T18:42:01.046Z,22.20
2022-10-04T18:44:31.869Z,21.30
2022-10-04T18:47:01.692Z,22.70
2022-10-04T18:49:34.253Z,22.70
2022-10-04T18:52:11.845Z,21.60
2022-10-04T18:55:09.398Z,25.60
2022-10-04T18:57:58.458Z,24.20
2022-10-04T19:00:59.482Z,25.20
2022-10-04T19:03:51.638Z,19.70
2022-10-04T19:06:33.849Z,30.50
2022-10-04T19:09:06.848Z,23.90
2022-10-04T19:12:00.838Z,24.30
2022-10-04T19:14:55.174Z,21.80
2022-10-04T19:18:04.516Z,21.70
2022-10-04T19:20:35.351Z,22.00
2022-10-04T19:23:22.596Z,23.00
2022-10-04T19:26:31.581Z,23.30
2022-10-04T19:29:37.862Z,24.30
2022-10-04T19:32:10.627Z,26.80
2022-10-04T19:35:08.161Z,25.40
2022-10-04T19:37:55.358Z,22.60
2022-10-04T19:40:57.556Z,24.90
2022-10-04T19:43:37.656Z,20.60
2022-10-04T19:46:30.178Z,19.30
2022-10-04T19:48:58.567Z,21.30
2022-10-04T19:51:45.639Z,19.40
2022-10-04T19:54:16.249Z,20.40
2022-10-04T19:56:50.104Z,20.30
2022-10-04T19:59:23.392Z,21.30
2022-10-04T20:01:55.504Z,20.30
2022-10-04T20:04:35.388Z,19.70
2022-10-04T20:07:25.160Z,21.50
2022-10-04T20:09:56.779Z,22.90
2022-10-04T20:13:04.224Z,22.80
2022-10-04T20:15:35.362Z,20.60
2022-10-04T20:18:03.596Z,22.20
2022-10-04T20:20:40.276Z,22.90
2022-10-04T20:23:09.353Z,21.20
2022-10-04T20:25:46.422Z,21.30
2022-10-04T20:28:35.962Z,20.80
2022-10-04T20:31:05.455Z,21.90
2022-10-04T20:33:37.070Z,22.80
2022-10-04T20:36:12.449Z,24.50
2022-10-04T20:38:51.798Z,22.40
2022-10-04T20:41:49.625Z,18.10
2022-10-04T20:44:43.359Z,20.20
2022-10-04T20:47:20.551Z,17.60
2022-10-04T20:49:47.856Z,19.50
2022-10-04T20:52:15.438Z,19.30
2022-10-04T20:54:53.764Z,21.30
2022-10-04T20:57:24.118Z,21.90
2022-10-04T20:59:55.793Z,17.60
2022-10-04T21:02:28.769Z,17.90
2022-10-04T21:05:13.338Z,16.80
2022-10-04T21:07:40.802Z,15.30
2022-10-04T21:10:17.547Z,16.60
2022-10-04T21:12:44.749Z,19.90
2022-10-04T21:15:17.871Z,14.80
2022-10-04T21:18:03.676Z,21.70
2022-10-04T21:20:50.658Z,17.80
2022-10-04T21:23:30.591Z,20.00
2022-10-04T21:26:21.410Z,19.40
2022-10-04T21:28:53.119Z,16.30
2022-10-04T21:31:20.372Z,20.20
2022-10-04T21:33:47.807Z,18.60
2022-10-04T21:36:15.244Z,15.90
2022-10-04T21:38:42.518Z,17.00
2022-10-04T21:41:09.660Z,18.40
2022-10-04T21:43:36.739Z,20.70
2022-10-04T21:46:03.936Z,20.20
2022-10-04T21:48:31.036Z,18.10
2022-10-04T21:50:58.193Z,19.20
2022-10-04T21:53:25.613Z,18.60
2022-10-04T21:55:53.203Z,19.80
2022-10-04T21:58:21.781Z,20.80
2022-10-04T22:04:49.901Z,18.50
2022-10-04T22:07:17.245Z,19.40
2022-10-04T22:09:44.585Z,20.80
2022-10-04T22:12:11.718Z,18.80
2022-10-04T22:14:38.969Z,17.90
2022-10-04T22:17:06.478Z,19.00
2022-10-04T22:19:33.772Z,20.00
2022-10-04T22:22:01.138Z,19.30
2022-10-04T22:24:28.415Z,20.90
2022-10-04T22:26:57.705Z,17.00
2022-10-04T22:29:27.312Z,18.50
2022-10-04T22:31:55.480Z,19.20
2022-10-04T22:34:23.143Z,17.10
2022-10-04T22:36:52.491Z,16.50
2022-10-04T22:39:20.499Z,18.00
2022-10-04T22:41:59.740Z,16.70
2022-10-04T22:44:34.999Z,17.00
2022-10-04T22:47:03.645Z,17.10
2022-10-04T22:49:35.944Z,15.10
2022-10-04T22:52:20.983Z,17.60
2022-10-04T22:54:50.861Z,18.10
2022-10-04T22:57:19.575Z,17.90
2022-10-04T22:59:52.982Z,15.40
2022-10-04T23:02:22.496Z,13.20
2022-10-04T23:05:20.481Z,17.60
2022-10-04T23:07:48.539Z,16.50
2022-10-04T23:10:18.869Z,17.40
2022-10-04T23:12:49.932Z,18.00
2022-10-04T23:15:20.016Z,18.10
2022-10-04T23:17:54.488Z,17.70
2022-10-04T23:20:22.608Z,17.50
2022-10-04T23:22:51.903Z,14.50
2022-10-04T23:25:42.475Z,15.10
2022-10-04T23:28:14.345Z,14.30
2022-10-04T23:30:43.677Z,18.20
2022-10-04T23:33:20.262Z,15.70
2022-10-04T23:35:50.111Z,14.80
2022-10-04T23:38:19.718Z,19.00
2022-10-04T23:40:47.219Z,16.30
2022-10-04T23:43:21.047Z,12.40
2022-10-04T23:45:48.491Z,15.00
2022-10-04T23:48:23.532Z,15.90
2022-10-04T23:50:51.242Z,14.70
2022-10-04T23:53:29.099Z,16.70
2022-10-04T23:55:58.499Z,14.60
2022-10-04T23:58:36.083Z,12.30
